Terminal Aerodrome Forecast
Issued by NWS

Home | Current Version | Previous Version | Graphics & Text | Print | Product List | Glossary Off
Versions: 1 2 3 4 5 6 7 8 9 10 11 12 13 14 15 16 17 18 19 20 21 22

269
FTUS43 KICT 282332
TAFSLN
TAF
KSLN 282332Z 2900/2924 09014KT P6SM VCTS OVC025CB
      TEMPO 2900/2904 4SM TSRA BKN012CB
     FM290400 04017G26KT 5SM -TSRA BKN018CB
      TEMPO 2904/2908 2SM TSRA OVC009CB
     FM290800 06018G25KT 5SM -TSRA OVC008CB
     FM291800 03016G24KT P6SM VCSH OVC018=

USA.gov is the U.S. government's official web portal to all federal, state and local government web resources and services.